Time;durP1;ratioP1;P1;durP2;ratioP2;P2;SDS_P1;SDS_P2;PMS_P1;PMS_P2;Temp;Humidity;BMP_temperature;BMP_pressure;BME280_temperature;BME280_humidity;BME280_pressure;Samples;Min_cycle;Max_cycle;Signal;HPM_P1;HPM_P2
2022/03/13 16:39:11;;;;;;;16.00;5.40;;;;;;;2.33;40.10;100683.27;25282;1307;3071085;-68
2022/03/13 16:41:42;;;;;;;21.10;6.90;;;;;;;2.33;40.16;100688.83;25336;1306;3048744;-67
2022/03/13 16:44:13;;;;;;;36.10;10.00;;;;;;;2.33;40.18;100691.24;25283;1305;3026505;-68
2022/03/13 16:46:45;;;;;;;54.90;12.50;;;;;;;2.33;40.40;100691.06;25292;1306;3053494;-67
2022/03/13 16:49:14;;;;;;;54.80;13.50;;;;;;;2.33;39.98;100695.23;25307;1306;3026765;-67
2022/03/13 16:51:45;;;;;;;45.90;12.00;;;;;;;2.31;40.33;100698.86;25326;1306;3054558;-70
2022/03/13 16:54:16;;;;;;;35.80;9.00;;;;;;;2.32;40.74;100701.09;25288;1307;3026502;-67
2022/03/13 16:56:46;;;;;;;34.10;10.90;;;;;;;2.37;40.07;100703.48;25285;1306;3027659;-68
2022/03/13 16:59:17;;;;;;;22.60;7.60;;;;;;;2.36;40.23;100711.45;25279;1306;3026256;-67
2022/03/13 17:01:46;;;;;;;22.10;7.10;;;;;;;2.36;39.64;100711.11;25299;1306;3026658;-67
2022/03/13 17:04:16;;;;;;;23.10;8.30;;;;;;;2.36;40.14;100712.66;25336;1306;3026785;-67
2022/03/13 17:06:46;;;;;;;25.20;9.30;;;;;;;2.35;40.07;100717.16;25283;1306;3026774;-69
2022/03/13 17:09:17;;;;;;;26.10;8.80;;;;;;;2.35;39.55;100718.38;25257;1306;3027139;-70
2022/03/13 17:11:47;;;;;;;20.90;8.60;;;;;;;2.33;39.58;100716.65;25287;1306;3029438;-70
2022/03/13 17:14:17;;;;;;;27.40;8.50;;;;;;;2.32;40.06;100717.17;25221;1306;3026339;-69
2022/03/13 17:16:52;;;;;;;20.90;8.30;;;;;;;2.32;40.56;100720.81;25264;1306;3058566;-70
2022/03/13 17:19:21;;;;;;;20.60;8.30;;;;;;;2.30;40.51;100722.91;25252;1306;3026673;-69
2022/03/13 17:21:52;;;;;;;25.50;8.60;;;;;;;2.31;40.93;100730.33;25257;1306;3054295;-67
2022/03/13 17:24:23;;;;;;;19.60;9.70;;;;;;;2.28;41.32;100728.27;25277;1307;3026445;-68
2022/03/13 17:26:52;;;;;;;23.60;10.70;;;;;;;2.27;41.24;100730.88;25285;1306;3026828;-68
2022/03/13 17:29:26;;;;;;;27.70;12.00;;;;;;;2.24;41.17;100734.17;25256;1306;3027390;-69
2022/03/13 17:32:06;;;;;;;25.70;11.40;;;;;;;2.23;41.57;100737.81;25311;1306;3051938;-69
2022/03/13 17:34:35;;;;;;;23.30;11.30;;;;;;;2.19;42.02;100740.95;25261;1306;3027121;-67
2022/03/13 17:37:06;;;;;;;28.30;11.70;;;;;;;2.17;42.22;100741.48;25250;1306;3026555;-69
2022/03/13 17:39:36;;;;;;;26.20;11.70;;;;;;;2.16;42.37;100743.56;25280;1306;3026576;-67
2022/03/13 17:42:05;;;;;;;24.30;10.80;;;;;;;2.14;42.60;100750.30;25301;1306;3026869;-66
2022/03/13 17:44:35;;;;;;;24.30;11.80;;;;;;;2.13;42.99;100756.20;25257;1306;3026626;-68
2022/03/13 17:47:05;;;;;;;28.70;12.10;;;;;;;2.14;43.73;100756.88;25293;1306;3027260;-66
2022/03/13 17:49:34;;;;;;;26.00;11.80;;;;;;;2.12;43.91;100760.86;25251;1306;3026625;-68
2022/03/13 17:52:04;;;;;;;26.90;11.90;;;;;;;2.11;43.94;100766.23;25301;1307;3026605;-69
2022/03/13 17:54:34;;;;;;;31.40;11.70;;;;;;;2.11;44.25;100764.84;25200;1306;3027727;-67
2022/03/13 17:57:03;;;;;;;25.50;10.90;;;;;;;2.11;43.83;100767.95;25260;1306;3028620;-67
2022/03/13 17:59:33;;;;;;;30.40;11.90;;;;;;;2.09;44.02;100767.80;25275;1306;3027128;-67
2022/03/13 18:02:02;;;;;;;29.80;10.20;;;;;;;2.08;44.25;100770.39;25261;1306;3026264;-68
2022/03/13 18:04:31;;;;;;;26.80;10.10;;;;;;;2.08;43.50;100771.08;25297;1306;3026478;-67
2022/03/13 18:07:00;;;;;;;25.60;10.60;;;;;;;2.05;43.71;100776.11;25249;1306;3028619;-68
2022/03/13 18:09:30;;;;;;;30.60;11.50;;;;;;;2.00;44.38;100777.51;25292;1306;3051152;-69
2022/03/13 18:11:59;;;;;;;25.20;11.50;;;;;;;1.96;44.84;100777.88;25272;1306;3026781;-70
2022/03/13 18:14:29;;;;;;;34.70;14.90;;;;;;;2.00;45.32;100775.45;25291;1306;3051769;-67
2022/03/13 18:16:59;;;;;;;31.20;13.80;;;;;;;2.00;45.69;100779.59;25313;1306;3026636;-71
2022/03/13 18:19:36;;;;;;;42.80;20.50;;;;;;;1.96;45.89;100783.75;25299;1306;3026929;-67
2022/03/13 18:22:15;;;;;;;30.70;13.10;;;;;;;2.02;46.40;100787.54;25291;1306;3050221;-67
2022/03/13 18:24:44;;;;;;;29.00;11.30;;;;;;;2.06;46.54;100788.21;25307;1306;3026848;-71
2022/03/13 18:27:15;;;;;;;29.00;11.20;;;;;;;2.07;46.24;100787.67;25239;1306;3027525;-67
2022/03/13 18:29:45;;;;;;;23.90;10.70;;;;;;;2.06;45.92;100787.34;25267;1306;3027204;-66
2022/03/13 18:32:14;;;;;;;25.60;10.40;;;;;;;2.06;45.95;100790.63;25306;1306;3026457;-68
2022/03/13 18:34:45;;;;;;;21.10;10.20;;;;;;;2.06;46.14;100791.32;25289;1306;3051203;-66
2022/03/13 18:37:15;;;;;;;19.50;9.70;;;;;;;2.03;45.92;100792.38;25225;1306;3026480;-67
2022/03/13 18:39:44;;;;;;;28.20;10.30;;;;;;;1.99;45.30;100791.52;25282;1306;3027651;-69
2022/03/13 18:42:16;;;;;;;21.90;9.90;;;;;;;1.97;45.25;100794.29;25296;1306;3027061;-67
2022/03/13 18:44:48;;;;;;;29.70;11.40;;;;;;;1.92;45.66;100799.84;25287;1306;3026856;-69
2022/03/13 18:47:19;;;;;;;26.10;11.40;;;;;;;1.92;45.65;100799.33;25277;1306;3026488;-68
2022/03/13 18:49:49;;;;;;;27.20;11.40;;;;;;;1.93;45.79;100802.60;25253;1306;3027180;-67
2022/03/13 18:52:21;;;;;;;28.60;11.00;;;;;;;1.90;46.22;100801.58;25299;1306;3029095;-68
2022/03/13 18:54:51;;;;;;;24.20;10.90;;;;;;;1.91;46.65;100800.36;25226;1306;3027364;-69
2022/03/13 18:57:19;;;;;;;23.10;10.10;;;;;;;1.92;46.39;100800.71;25287;1306;3027010;-70
2022/03/13 18:59:49;;;;;;;20.70;9.30;;;;;;;1.93;46.15;100805.36;25252;1307;3054763;-69
2022/03/13 19:02:18;;;;;;;19.00;9.10;;;;;;;1.90;46.29;100808.32;25290;1306;3026757;-69
2022/03/13 19:04:48;;;;;;;19.50;9.00;;;;;;;1.84;46.43;100813.70;25243;1306;3049875;-70
2022/03/13 19:07:19;;;;;;;21.80;9.10;;;;;;;1.83;46.48;100814.56;25274;1306;3026041;-69
2022/03/13 19:09:51;;;;;;;19.10;8.90;;;;;;;1.81;46.76;100818.20;25239;1306;3027358;-70
2022/03/13 19:12:21;;;;;;;19.30;9.60;;;;;;;1.77;47.17;100820.98;25286;1306;3026876;-68
2022/03/13 19:14:58;;;;;;;18.10;9.40;;;;;;;1.80;47.26;100818.20;25277;1306;3026564;-66
2022/03/13 19:17:30;;;;;;;20.40;10.00;;;;;;;1.82;47.57;100820.44;25277;1306;3051096;-69
2022/03/13 19:20:06;;;;;;;22.40;9.90;;;;;;;1.81;47.28;100822.17;25304;1306;3051756;-67
2022/03/13 19:22:36;;;;;;;20.00;9.50;;;;;;;1.76;47.55;100824.25;25300;1306;3028715;-68
2022/03/13 19:25:09;;;;;;;20.70;9.80;;;;;;;1.70;48.36;100825.14;25262;1306;3028306;-68
2022/03/13 19:27:39;;;;;;;25.30;10.70;;;;;;;1.73;48.01;100827.20;25228;1306;3055444;-67
2022/03/13 19:30:11;;;;;;;21.10;9.80;;;;;;;1.71;48.79;100824.95;25239;1306;3026489;-69
2022/03/13 19:32:44;;;;;;;27.20;11.90;;;;;;;1.67;48.88;100828.77;25268;1306;3072531;-67
2022/03/13 19:35:13;;;;;;;26.70;11.60;;;;;;;1.69;49.29;100828.59;25307;1306;3026318;-68
2022/03/13 19:37:42;;;;;;;23.00;11.90;;;;;;;1.71;48.95;100826.68;25222;1306;3027155;-67
2022/03/13 19:40:16;;;;;;;23.80;10.80;;;;;;;1.73;49.00;100830.83;25309;1306;3070942;-65
2022/03/13 19:42:47;;;;;;;23.70;11.50;;;;;;;1.72;49.30;100831.35;25198;1306;3051785;-67
2022/03/13 19:45:16;;;;;;;29.60;11.00;;;;;;;1.73;49.52;100835.83;25281;1306;3028926;-67
2022/03/13 19:47:48;;;;;;;25.70;12.40;;;;;;;1.71;49.51;100835.66;25227;1306;3027132;-67
2022/03/13 19:50:18;;;;;;;27.60;13.00;;;;;;;1.71;49.89;100839.64;25275;1306;3026744;-68
2022/03/13 19:52:49;;;;;;;31.10;13.70;;;;;;;1.69;50.25;100839.82;25243;1306;3026673;-67
2022/03/13 19:55:19;;;;;;;39.60;14.40;;;;;;;1.67;50.07;100839.30;25240;1306;3028373;-68
2022/03/13 19:57:49;;;;;;;41.60;15.80;;;;;;;1.67;49.98;100840.33;25255;1306;3027356;-69
2022/03/13 20:00:20;;;;;;;54.40;19.40;;;;;;;1.67;50.30;100839.83;25282;1306;3026705;-66
2022/03/13 20:02:49;;;;;;;48.80;17.40;;;;;;;1.60;50.72;100841.56;25263;1306;3053426;-67
2022/03/13 20:05:19;;;;;;;39.50;16.30;;;;;;;1.60;50.21;100839.66;25331;1306;3026510;-67
2022/03/13 20:08:00;;;;;;;36.50;15.10;;;;;;;1.64;50.13;100841.02;25300;1306;3068612;-67
2022/03/13 20:10:30;;;;;;;35.30;14.60;;;;;;;1.60;50.28;100837.06;25311;1306;3026674;-70
2022/03/13 20:13:00;;;;;;;30.00;12.60;;;;;;;1.55;50.36;100836.91;25318;1306;3026704;-67
2022/03/13 20:15:30;;;;;;;25.70;12.00;;;;;;;1.54;50.41;100832.58;25279;1306;3027330;-70
2022/03/13 20:18:01;;;;;;;24.30;11.30;;;;;;;1.55;50.40;100829.65;25302;1306;3028165;-66
2022/03/13 20:20:30;;;;;;;22.00;11.60;;;;;;;1.55;49.95;100831.20;25312;1306;3026504;-67
2022/03/13 20:23:00;;;;;;;22.20;10.30;;;;;;;1.53;50.32;100831.05;25306;1306;3054193;-67
2022/03/13 20:25:31;;;;;;;19.10;10.40;;;;;;;1.51;50.30;100832.93;25333;1306;3026107;-69
2022/03/13 20:28:00;;;;;;;21.90;10.30;;;;;;;1.50;50.14;100832.08;25257;1306;3027376;-70
2022/03/13 20:30:29;;;;;;;20.10;9.50;;;;;;;1.50;50.32;100828.80;25242;1306;3026581;-70
2022/03/13 20:33:01;;;;;;;18.20;8.90;;;;;;;1.48;50.44;100834.84;25281;1306;3056740;-72
2022/03/13 20:35:33;;;;;;;17.50;9.10;;;;;;;1.46;50.17;100837.10;25269;1306;3028969;-70
2022/03/13 20:38:07;;;;;;;21.00;10.40;;;;;;;1.44;50.48;100836.92;25267;1306;3028309;-67
2022/03/13 20:40:37;;;;;;;28.90;12.60;;;;;;;1.42;51.12;100835.73;25300;1306;3052310;-68
2022/03/13 20:43:08;;;;;;;30.70;12.60;;;;;;;1.41;51.11;100833.65;25237;1306;3026135;-70
2022/03/13 20:45:37;;;;;;;25.50;12.10;;;;;;;1.41;50.78;100832.95;25279;1306;3028900;-69
2022/03/13 20:48:08;;;;;;;23.00;10.60;;;;;;;1.41;50.43;100831.92;25297;1304;3026693;-69
2022/03/13 20:50:41;;;;;;;19.20;10.30;;;;;;;1.38;50.24;100830.90;25295;1306;3026801;-69
2022/03/13 20:53:12;;;;;;;23.10;10.50;;;;;;;1.38;50.53;100827.27;25297;1306;3026487;-68
2022/03/13 20:55:42;;;;;;;22.10;12.10;;;;;;;1.36;50.78;100828.82;25278;1306;3026608;-70
2022/03/13 20:58:14;;;;;;;23.30;12.80;;;;;;;1.36;50.62;100829.86;25298;1306;3026617;-68
2022/03/13 21:00:44;;;;;;;23.80;11.80;;;;;;;1.38;50.25;100830.54;25248;1306;3027483;-67
2022/03/13 21:03:15;;;;;;;21.20;10.90;;;;;;;1.37;50.17;100833.30;25293;1306;3026534;-68
2022/03/13 21:05:45;;;;;;;17.70;9.00;;;;;;;1.33;50.24;100834.35;25341;1306;3054512;-68
2022/03/13 21:08:15;;;;;;;18.80;9.30;;;;;;;1.34;49.93;100835.21;25234;1306;3027147;-68
2022/03/13 21:11:04;;;;;;;20.70;9.60;;;;;;;1.34;49.84;100834.52;25274;1306;3049811;-68
2022/03/13 21:13:34;;;;;;;16.30;8.90;;;;;;;1.34;49.51;100836.77;25318;1306;3026481;-68
2022/03/13 21:16:05;;;;;;;23.30;10.20;;;;;;;1.33;49.30;100836.25;25323;1306;3027059;-68
2022/03/13 21:18:37;;;;;;;19.50;10.00;;;;;;;1.30;49.70;100839.54;25319;1306;3026888;-67
2022/03/13 21:21:06;;;;;;;24.70;13.60;;;;;;;1.30;48.93;100840.39;25353;1306;3026337;-69
2022/03/13 21:23:35;;;;;;;18.20;9.40;;;;;;;1.33;48.74;100843.16;25365;1306;3026750;-66
2022/03/13 21:26:04;;;;;;;18.10;9.00;;;;;;;1.33;48.64;100845.75;25250;1306;3029489;-68
2022/03/13 21:28:34;;;;;;;18.30;8.40;;;;;;;1.33;49.42;100841.43;25282;1306;3051960;-67
2022/03/13 21:31:03;;;;;;;16.80;8.10;;;;;;;1.36;49.45;100845.56;25292;1306;3027193;-69
2022/03/13 21:33:34;;;;;;;13.60;6.90;;;;;;;1.36;48.72;100841.41;25251;1306;3070980;-68
2022/03/13 21:36:03;;;;;;;15.50;7.70;;;;;;;1.32;48.16;100842.30;25279;1306;3026678;-67
2022/03/13 21:38:33;;;;;;;17.10;7.00;;;;;;;1.31;48.29;100844.36;25231;1306;3026313;-68
2022/03/13 21:41:03;;;;;;;15.30;7.50;;;;;;;1.30;48.33;100843.85;25287;1306;3026087;-69
2022/03/13 21:43:33;;;;;;;17.30;8.20;;;;;;;1.32;49.04;100847.80;25280;1306;3029042;-68
2022/03/13 21:46:02;;;;;;;17.30;8.30;;;;;;;1.30;49.03;100848.51;25267;1306;3026305;-69
2022/03/13 21:48:32;;;;;;;14.30;7.90;;;;;;;1.30;48.51;100847.13;25305;1306;3028927;-68
2022/03/13 21:51:01;;;;;;;15.20;8.20;;;;;;;1.32;48.37;100849.88;25281;1306;3056465;-71
2022/03/13 21:53:30;;;;;;;14.40;7.30;;;;;;;1.30;48.13;100851.96;25235;1306;3027164;-66
2022/03/13 21:56:00;;;;;;;16.60;7.50;;;;;;;1.30;48.09;100851.79;25305;1306;3026614;-69
2022/03/13 21:58:29;;;;;;;18.80;8.40;;;;;;;1.35;47.94;100856.61;25303;1306;3058625;-69
2022/03/13 22:00:59;;;;;;;14.70;7.40;;;;;;;1.39;47.95;100857.65;25258;1306;3027213;-69
2022/03/13 22:03:29;;;;;;;13.80;7.30;;;;;;;1.26;48.03;100857.31;25279;1306;3054135;-68
2022/03/13 22:05:59;;;;;;;17.90;8.70;;;;;;;1.25;48.04;100858.68;25291;1306;3026534;-68
2022/03/13 22:08:30;;;;;;;20.40;9.10;;;;;;;1.27;48.47;100861.79;25302;1306;3026916;-71
2022/03/13 22:11:00;;;;;;;22.10;11.40;;;;;;;1.28;48.86;100859.21;25312;1306;3027491;-67
2022/03/13 22:13:32;;;;;;;25.20;11.90;;;;;;;1.26;48.83;100857.48;25277;1306;3027224;-67
2022/03/13 22:16:02;;;;;;;27.20;12.90;;;;;;;1.20;49.61;100862.31;25282;1306;3029888;-67
2022/03/13 22:18:32;;;;;;;27.80;13.50;;;;;;;1.09;50.12;100864.55;25260;1306;3026946;-69
2022/03/13 22:21:01;;;;;;;27.40;13.10;;;;;;;1.09;50.32;100864.21;25241;1306;3029364;-67
2022/03/13 22:23:30;;;;;;;25.50;13.70;;;;;;;0.98;51.38;100866.96;25274;1306;3026207;-68
2022/03/13 22:26:00;;;;;;;23.60;12.10;;;;;;;0.83;52.05;100868.49;25276;1306;3050870;-67
2022/03/13 22:28:29;;;;;;;33.00;14.40;;;;;;;0.86;52.07;100869.88;25269;1306;3029478;-66
2022/03/13 22:30:58;;;;;;;36.90;16.40;;;;;;;0.63;53.78;100876.90;25282;1306;3027501;-67
2022/03/13 22:33:30;;;;;;;35.80;16.60;;;;;;;0.48;54.73;100880.98;25258;1306;3028005;-65
2022/03/13 22:35:59;;;;;;;37.00;16.80;;;;;;;0.41;55.25;100880.80;25281;1306;3028259;-69
2022/03/13 22:38:28;;;;;;;39.80;17.20;;;;;;;0.39;55.65;100887.52;25279;1306;3026290;-65
2022/03/13 22:40:58;;;;;;;41.40;16.10;;;;;;;0.33;55.90;100884.38;25229;1306;3055570;-66
2022/03/13 22:43:28;;;;;;;36.80;16.70;;;;;;;0.31;56.41;100887.48;25271;1307;3026533;-68
2022/03/13 22:45:57;;;;;;;36.70;15.70;;;;;;;0.30;56.18;100886.27;25198;1306;3027701;-67
2022/03/13 22:48:27;;;;;;;35.20;16.70;;;;;;;0.36;56.14;100887.14;25260;1305;3057985;-69
2022/03/13 22:51:02;;;;;;;39.60;16.20;;;;;;;0.30;56.78;100888.86;25311;1306;3027271;-68
2022/03/13 22:53:34;;;;;;;39.70;18.30;;;;;;;0.31;56.41;100887.99;25293;1306;3026792;-66
2022/03/13 22:56:06;;;;;;;43.60;19.50;;;;;;;0.30;56.81;100889.38;25283;1306;3028389;-69
2022/03/13 22:58:36;;;;;;;46.00;19.80;;;;;;;0.30;56.81;100886.79;25290;1306;3025982;-68
2022/03/13 23:01:09;;;;;;;40.50;19.20;;;;;;;0.30;56.94;100887.14;25306;1306;3030322;-68
2022/03/13 23:03:38;;;;;;;39.90;18.10;;;;;;;0.34;57.00;100888.53;25301;1306;3026189;-69
2022/03/13 23:06:07;;;;;;;45.10;18.40;;;;;;;0.37;57.21;100887.67;25246;1306;3026825;-69
2022/03/13 23:08:37;;;;;;;42.00;17.80;;;;;;;0.44;56.72;100887.70;25258;1306;3051315;-68
2022/03/13 23:11:07;;;;;;;38.60;17.60;;;;;;;0.45;56.87;100889.27;25250;1306;3026420;-66
2022/03/13 23:13:39;;;;;;;36.30;15.90;;;;;;;0.46;56.55;100886.52;25227;1306;3027139;-70
2022/03/13 23:16:12;;;;;;;35.30;13.60;;;;;;;0.38;57.08;100889.06;25259;1306;3026746;-69
2022/03/13 23:18:41;;;;;;;30.90;14.20;;;;;;;0.37;56.92;100893.20;25272;1306;3026458;-67
2022/03/13 23:21:14;;;;;;;33.00;13.80;;;;;;;0.31;57.29;100902.13;25306;1306;3029389;-67
2022/03/13 23:23:44;;;;;;;27.90;13.20;;;;;;;0.28;57.33;100895.05;25299;1306;3027862;-67
2022/03/13 23:26:15;;;;;;;24.10;12.20;;;;;;;0.32;57.19;100891.79;25206;1306;3028444;-67
2022/03/13 23:28:46;;;;;;;26.60;13.30;;;;;;;0.33;57.33;100888.85;25244;1306;3028576;-64
2022/03/13 23:31:17;;;;;;;25.90;12.40;;;;;;;0.39;57.14;100886.30;25267;1306;3027361;-66
2022/03/13 23:33:47;;;;;;;29.40;13.10;;;;;;;0.43;57.17;100888.03;25285;1306;3026654;-67
2022/03/13 23:36:16;;;;;;;28.80;13.10;;;;;;;0.45;57.56;100885.64;25272;1305;3026390;-69
2022/03/13 23:38:46;;;;;;;31.40;14.20;;;;;;;0.53;57.14;100885.48;25298;1305;3054472;-67
2022/03/13 23:41:16;;;;;;;27.40;12.60;;;;;;;0.57;57.21;100885.68;25238;1306;3026418;-68
2022/03/13 23:43:47;;;;;;;25.20;12.70;;;;;;;0.61;57.08;100885.52;25238;1306;3026414;-68
2022/03/13 23:46:17;;;;;;;23.80;11.50;;;;;;;0.62;56.98;100884.98;25243;1306;3026932;-69
2022/03/13 23:48:48;;;;;;;22.90;11.30;;;;;;;0.56;57.56;100891.70;25284;1306;3028462;-65
2022/03/13 23:51:18;;;;;;;26.10;13.10;;;;;;;0.53;57.66;100892.21;25274;1305;3026850;-68
2022/03/13 23:53:47;;;;;;;25.10;11.60;;;;;;;0.57;57.26;100892.56;25224;1306;3030113;-68
2022/03/13 23:56:17;;;;;;;22.20;11.00;;;;;;;0.60;57.03;100896.20;25295;1306;3055122;-65
2022/03/13 23:58:46;;;;;;;20.60;10.80;;;;;;;0.58;57.53;100895.16;25288;1306;3028712;-66
